Time;durP1;ratioP1;P1;durP2;ratioP2;P2;SDS_P1;SDS_P2;PMS_P1;PMS_P2;Temp;Humidity;BMP_temperature;BMP_pressure;BME280_temperature;BME280_humidity;BME280_pressure;Samples;Min_cycle;Max_cycle;Signal;HPM_P1;HPM_P2
2023/12/21 00:00:08;;;;;;;6.10;4.20;;;;;;;4.88;72.21;98201.02;107248;1257;60482;-40
2023/12/21 00:02:35;;;;;;;5.50;4.20;;;;;;;4.88;72.25;98204.38;107259;1257;60577;-40
2023/12/21 00:05:04;;;;;;;5.20;3.90;;;;;;;4.91;72.04;98206.67;107104;1258;73113;-40
2023/12/21 00:07:31;;;;;;;5.60;3.60;;;;;;;4.88;71.91;98217.75;107287;1257;66383;-40
2023/12/21 00:09:59;;;;;;;5.10;3.80;;;;;;;4.82;72.20;98217.77;107209;1258;72688;-40
2023/12/21 00:12:27;;;;;;;5.10;3.80;;;;;;;4.75;72.15;98219.30;107199;1260;60453;-40
2023/12/21 00:14:54;;;;;;;4.40;3.20;;;;;;;4.73;72.35;98219.02;107206;1263;60347;-40
2023/12/21 00:17:22;;;;;;;4.10;2.90;;;;;;;4.75;72.13;98217.61;107091;1260;73875;-40
2023/12/21 00:19:49;;;;;;;4.30;3.10;;;;;;;4.83;71.78;98220.92;107093;1260;67090;-39
2023/12/21 00:22:21;;;;;;;3.40;2.90;;;;;;;4.83;71.55;98221.15;107257;1260;73115;-40
2023/12/21 00:24:49;;;;;;;4.20;3.20;;;;;;;4.81;71.39;98216.27;106481;1260;1003532;-39
2023/12/21 00:27:17;;;;;;;3.90;3.20;;;;;;;4.78;71.42;98215.44;107230;1260;60325;-40
2023/12/21 00:29:44;;;;;;;3.50;2.80;;;;;;;4.77;71.36;98216.73;107185;1257;73870;-39
2023/12/21 00:32:12;;;;;;;4.30;3.00;;;;;;;4.75;71.51;98219.58;107177;1260;66411;-40
2023/12/21 00:34:42;;;;;;;2.40;2.20;;;;;;;4.77;71.11;98216.81;107185;1260;71416;-39
2023/12/21 00:37:09;;;;;;;3.20;2.50;;;;;;;4.80;70.72;98213.50;107218;1259;60379;-39
2023/12/21 00:39:37;;;;;;;4.10;3.00;;;;;;;4.78;70.40;98211.00;107197;1258;59336;-40
2023/12/21 00:42:05;;;;;;;4.60;3.30;;;;;;;4.75;70.49;98212.31;107181;1260;72570;-40
2023/12/21 00:44:32;;;;;;;4.60;2.70;;;;;;;4.72;70.54;98212.54;107060;1260;66076;-39
2023/12/21 00:47:00;;;;;;;4.60;2.60;;;;;;;4.69;70.43;98218.61;107204;1261;72736;-39
2023/12/21 00:49:27;;;;;;;3.10;2.80;;;;;;;4.65;70.52;98214.61;107196;1257;60822;-40
2023/12/21 00:51:55;;;;;;;2.80;2.50;;;;;;;4.68;70.44;98212.77;107210;1257;60372;-40
2023/12/21 00:54:22;;;;;;;2.90;2.30;;;;;;;4.70;70.34;98211.51;107255;1258;72587;-40
2023/12/21 00:56:51;;;;;;;3.60;2.80;;;;;;;4.68;70.23;98214.98;107202;1257;66752;-40
2023/12/21 00:59:18;;;;;;;3.50;2.80;;;;;;;4.66;70.38;98218.00;107219;1257;71437;-40
2023/12/21 01:01:46;;;;;;;3.60;2.70;;;;;;;4.65;70.06;98223.89;107158;1257;60422;-40
2023/12/21 01:04:13;;;;;;;3.10;2.60;;;;;;;4.65;70.06;98219.89;107282;1257;60589;-40
2023/12/21 01:06:43;;;;;;;3.30;2.50;;;;;;;4.64;69.63;98220.42;107237;1257;71696;-40
2023/12/21 01:09:10;;;;;;;3.00;2.50;;;;;;;4.70;69.26;98217.10;107252;1257;67872;-40
2023/12/21 01:11:38;;;;;;;3.00;2.40;;;;;;;4.75;68.95;98210.98;107222;1257;70990;-40
2023/12/21 01:14:05;;;;;;;3.40;2.70;;;;;;;4.72;68.77;98212.25;107245;1257;60497;-40
2023/12/21 01:16:33;;;;;;;3.80;2.60;;;;;;;4.69;68.14;98204.27;107213;1257;60339;-40
2023/12/21 01:19:00;;;;;;;4.20;2.60;;;;;;;4.66;67.86;98202.44;107234;1257;73449;-40
2023/12/21 01:21:28;;;;;;;3.90;2.60;;;;;;;4.64;67.88;98193.71;107270;1257;67590;-40
2023/12/21 01:23:55;;;;;;;4.00;2.70;;;;;;;4.61;67.60;98197.02;107273;1257;71107;-40
2023/12/21 01:26:23;;;;;;;2.70;2.00;;;;;;;4.58;67.28;98200.95;107244;1257;60177;-40
2023/12/21 01:28:51;;;;;;;3.10;2.30;;;;;;;4.61;66.99;98199.79;107338;1257;59587;-39
2023/12/21 01:31:18;;;;;;;3.80;2.20;;;;;;;4.65;66.93;98201.88;107267;1257;72976;-40
2023/12/21 01:33:46;;;;;;;3.40;2.40;;;;;;;4.64;66.88;98200.16;107587;1254;66391;-40
2023/12/21 01:36:13;;;;;;;2.80;2.50;;;;;;;4.61;66.95;98202.61;107577;1254;71389;-40
2023/12/21 01:38:41;;;;;;;3.40;2.50;;;;;;;4.58;67.34;98199.87;107598;1254;60463;-40
2023/12/21 01:41:09;;;;;;;4.00;2.80;;;;;;;4.57;67.56;98203.61;107494;1254;60099;-40
2023/12/21 01:43:36;;;;;;;3.50;2.50;;;;;;;4.56;67.67;98206.48;107577;1254;73861;-40
2023/12/21 01:46:04;;;;;;;3.90;2.50;;;;;;;4.53;67.18;98206.26;107463;1254;66682;-40
2023/12/21 01:48:32;;;;;;;2.70;2.30;;;;;;;4.54;66.38;98202.98;107608;1254;72620;-40
2023/12/21 01:51:00;;;;;;;3.40;2.30;;;;;;;4.56;65.96;98197.66;107612;1254;60190;-40
2023/12/21 01:53:28;;;;;;;4.40;2.00;;;;;;;4.54;65.91;98194.40;107628;1254;60354;-39
2023/12/21 01:55:56;;;;;;;4.30;2.50;;;;;;;4.49;65.98;98195.45;107612;1254;72894;-40
2023/12/21 01:58:23;;;;;;;7.00;2.50;;;;;;;4.45;65.68;98190.27;107653;1257;67546;-40
2023/12/21 02:00:52;;;;;;;5.60;3.20;;;;;;;4.40;65.81;98189.45;107578;1254;72652;-40
2023/12/21 02:03:20;;;;;;;2.90;2.20;;;;;;;4.33;65.96;98186.23;107614;1257;60305;-40
2023/12/21 02:05:47;;;;;;;5.40;2.90;;;;;;;4.26;66.00;98186.06;107495;1254;60335;-40
2023/12/21 02:08:15;;;;;;;3.60;2.30;;;;;;;4.19;65.98;98186.89;107591;1254;72532;-40
2023/12/21 02:10:42;;;;;;;3.90;2.20;;;;;;;4.19;66.21;98187.80;107634;1254;67561;-40
2023/12/21 02:13:15;;;;;;;4.00;2.10;;;;;;;4.23;65.99;98183.75;107654;1254;71371;-40
2023/12/21 02:15:43;;;;;;;3.50;2.10;;;;;;;4.22;66.03;98182.81;107650;1254;60328;-40
2023/12/21 02:18:11;;;;;;;2.70;2.00;;;;;;;4.19;65.94;98184.90;107318;1254;60310;-40
2023/12/21 02:20:40;;;;;;;2.80;2.00;;;;;;;4.17;65.92;98182.08;107324;1254;73920;-40
2023/12/21 02:23:08;;;;;;;2.90;1.80;;;;;;;4.15;65.77;98183.86;107376;1254;67884;-40
2023/12/21 02:25:35;;;;;;;5.40;2.00;;;;;;;4.12;65.47;98182.11;107365;1254;71458;-40
2023/12/21 02:28:03;;;;;;;3.40;2.20;;;;;;;4.09;65.66;98180.49;107486;1254;60348;-40
2023/12/21 02:30:31;;;;;;;4.80;2.20;;;;;;;4.05;65.40;98171.50;107595;1254;60414;-40
2023/12/21 02:32:58;;;;;;;2.80;1.90;;;;;;;4.01;65.16;98174.48;107485;1260;73833;-40
2023/12/21 02:35:26;;;;;;;3.00;1.90;;;;;;;4.03;65.31;98175.89;107597;1257;66609;-39
2023/12/21 02:37:53;;;;;;;3.70;2.10;;;;;;;4.06;65.14;98178.42;107479;1258;72702;-40
2023/12/21 02:40:21;;;;;;;3.30;2.00;;;;;;;4.02;65.27;98175.27;107623;1254;60350;-39
2023/12/21 02:42:48;;;;;;;3.90;2.00;;;;;;;3.97;65.49;98170.00;107617;1255;60431;-40
2023/12/21 02:45:16;;;;;;;3.60;2.20;;;;;;;3.91;65.64;98167.80;107600;1254;73845;-40
2023/12/21 02:47:43;;;;;;;4.40;2.30;;;;;;;3.86;65.76;98162.38;107591;1258;66275;-40
2023/12/21 02:50:11;;;;;;;4.50;2.90;;;;;;;3.80;66.11;98162.45;107588;1257;72558;-39
2023/12/21 02:52:39;;;;;;;4.00;2.70;;;;;;;3.73;66.50;98160.73;107481;1258;60452;-40
2023/12/21 02:55:07;;;;;;;3.80;2.40;;;;;;;3.66;66.78;98163.22;107496;1258;59285;-40
2023/12/21 02:57:35;;;;;;;3.30;2.30;;;;;;;3.65;66.85;98160.68;107594;1254;72611;-39
2023/12/21 03:00:03;;;;;;;4.80;2.80;;;;;;;3.65;66.98;98163.05;107490;1254;66414;-40
2023/12/21 03:02:31;;;;;;;3.30;2.40;;;;;;;3.59;67.25;98160.98;107657;1258;70644;-40
2023/12/21 03:04:58;;;;;;;4.90;2.90;;;;;;;3.51;67.66;98158.54;107485;1259;60461;-39
2023/12/21 03:07:25;;;;;;;4.40;2.80;;;;;;;3.42;68.23;98155.23;107524;1259;60289;-39
2023/12/21 03:09:53;;;;;;;4.10;3.40;;;;;;;3.34;68.54;98156.68;107650;1254;72524;-39
2023/12/21 03:12:21;;;;;;;4.90;3.10;;;;;;;3.24;68.91;98154.64;107609;1254;66325;-39
2023/12/21 03:14:48;;;;;;;4.00;2.80;;;;;;;3.17;69.17;98157.03;107521;1259;72747;-38
2023/12/21 03:17:15;;;;;;;4.70;3.30;;;;;;;3.14;69.57;98158.79;107481;1259;60882;-39
2023/12/21 03:19:43;;;;;;;4.50;3.40;;;;;;;3.13;69.97;98156.09;107498;1259;60343;-39
2023/12/21 03:22:10;;;;;;;5.90;3.20;;;;;;;3.05;70.26;98158.02;107478;1259;73852;-39
2023/12/21 03:24:39;;;;;;;4.90;3.20;;;;;;;2.97;70.65;98157.17;107415;1259;66650;-39
2023/12/21 03:27:09;;;;;;;5.60;2.60;;;;;;;2.91;71.28;98157.75;107471;1254;72434;-38
2023/12/21 03:29:37;;;;;;;5.40;3.60;;;;;;;2.82;71.25;98155.66;107424;1253;60577;-39
2023/12/21 03:32:05;;;;;;;6.00;3.60;;;;;;;2.75;71.45;98156.98;107486;1259;60311;-39
2023/12/21 03:34:33;;;;;;;5.50;3.10;;;;;;;2.74;71.76;98154.57;107557;1254;72569;-38
2023/12/21 03:37:00;;;;;;;4.20;3.50;;;;;;;2.77;71.82;98155.73;107463;1254;67868;-39
2023/12/21 03:39:28;;;;;;;5.70;3.80;;;;;;;2.74;72.09;98149.90;107387;1258;72387;-39
2023/12/21 03:41:56;;;;;;;6.20;3.90;;;;;;;2.71;72.48;98150.13;107465;1259;60442;-39
2023/12/21 03:44:24;;;;;;;7.20;4.00;;;;;;;2.69;72.37;98143.56;107375;1254;60450;-38
2023/12/21 03:46:51;;;;;;;5.20;3.70;;;;;;;2.65;72.36;98141.00;107488;1255;73775;-38
2023/12/21 03:49:19;;;;;;;5.90;4.00;;;;;;;2.63;72.49;98141.40;107471;1259;66528;-38
2023/12/21 03:51:47;;;;;;;6.90;4.20;;;;;;;2.59;72.46;98139.00;107388;1260;71393;-38
2023/12/21 03:54:14;;;;;;;6.20;3.70;;;;;;;2.62;72.55;98135.85;107467;1254;60552;-39
2023/12/21 03:56:41;;;;;;;6.10;3.70;;;;;;;2.65;72.59;98134.73;107451;1254;60314;-38
2023/12/21 03:59:11;;;;;;;6.10;3.90;;;;;;;2.60;72.47;98131.90;107468;1254;72614;-39
2023/12/21 04:01:38;;;;;;;5.60;3.90;;;;;;;2.54;72.77;98134.63;107427;1259;67895;-38
2023/12/21 04:04:06;;;;;;;5.90;3.60;;;;;;;2.48;72.98;98140.86;107496;1254;71389;-39
2023/12/21 04:06:33;;;;;;;7.60;3.90;;;;;;;2.42;72.86;98147.23;107404;1257;60500;-38
2023/12/21 04:09:01;;;;;;;9.90;4.30;;;;;;;2.34;73.15;98150.67;107517;1255;60390;-39
2023/12/21 04:11:28;;;;;;;4.50;3.30;;;;;;;2.34;73.06;98153.48;107496;1260;72643;-39
2023/12/21 04:13:56;;;;;;;8.10;4.30;;;;;;;2.29;73.00;98143.25;107480;1258;68447;-39
2023/12/21 04:16:23;;;;;;;5.80;3.40;;;;;;;2.33;73.24;98160.19;107344;1258;72723;-39
2023/12/21 04:18:51;;;;;;;7.80;4.30;;;;;;;2.27;73.36;98158.69;107476;1254;60358;-39
2023/12/21 04:21:18;;;;;;;6.50;4.20;;;;;;;2.21;73.66;98157.04;107424;1260;59234;-39
2023/12/21 04:23:46;;;;;;;6.60;4.30;;;;;;;2.17;73.78;98156.39;107388;1253;72692;-39
2023/12/21 04:26:20;;;;;;;7.60;4.30;;;;;;;2.14;73.80;98154.85;107510;1254;66667;-39
2023/12/21 04:28:50;;;;;;;8.00;4.40;;;;;;;2.17;73.87;98154.63;107393;1260;71462;-39
2023/12/21 04:31:19;;;;;;;6.10;4.00;;;;;;;2.24;73.64;98145.39;107384;1258;60376;-39
2023/12/21 04:33:51;;;;;;;7.00;4.50;;;;;;;2.25;73.64;98145.18;107447;1259;60439;-40
2023/12/21 04:36:19;;;;;;;7.40;4.40;;;;;;;2.23;73.48;98148.84;107376;1259;73864;-39
2023/12/21 04:38:52;;;;;;;7.00;4.60;;;;;;;2.17;73.73;98162.20;107498;1255;67235;-39
2023/12/21 04:41:20;;;;;;;6.60;4.00;;;;;;;2.11;73.69;98161.30;107500;1254;72772;-39
2023/12/21 04:43:48;;;;;;;6.40;3.80;;;;;;;2.05;73.95;98166.52;107405;1260;60433;-38
2023/12/21 04:46:17;;;;;;;6.70;4.40;;;;;;;1.99;73.85;98165.95;107376;1254;60114;-39
2023/12/21 04:48:45;;;;;;;7.20;4.60;;;;;;;2.00;73.78;98166.05;107424;1259;72588;-39
2023/12/21 04:51:16;;;;;;;5.80;4.00;;;;;;;2.02;73.79;98164.54;107559;1260;67580;-38
2023/12/21 04:53:44;;;;;;;7.00;4.40;;;;;;;1.99;73.91;98169.70;107452;1258;72671;-38
2023/12/21 04:56:11;;;;;;;6.70;4.10;;;;;;;1.94;74.36;98169.31;107464;1259;60374;-38
2023/12/21 04:58:40;;;;;;;10.50;5.00;;;;;;;1.89;74.78;98165.87;107503;1260;60459;-38
2023/12/21 05:01:08;;;;;;;6.50;4.70;;;;;;;1.83;75.20;98170.14;107416;1255;73976;-38
2023/12/21 05:03:36;;;;;;;7.10;4.30;;;;;;;1.77;75.57;98171.25;107482;1260;65483;-38
2023/12/21 05:06:04;;;;;;;7.70;4.10;;;;;;;1.78;75.48;98175.11;107508;1254;72566;-38
2023/12/21 05:08:32;;;;;;;5.70;4.30;;;;;;;1.82;75.67;98171.95;107407;1255;60447;-39
2023/12/21 05:10:59;;;;;;;8.90;4.80;;;;;;;1.80;75.72;98164.48;107498;1254;60398;-39
2023/12/21 05:13:27;;;;;;;9.00;5.00;;;;;;;1.79;76.09;98164.83;107489;1255;73925;-39
2023/12/21 05:15:54;;;;;;;9.10;5.10;;;;;;;1.77;76.62;98167.21;107407;1260;67574;-39
2023/12/21 05:18:23;;;;;;;8.30;5.30;;;;;;;1.77;76.67;98170.40;107464;1258;71438;-39
2023/12/21 05:20:51;;;;;;;6.70;4.80;;;;;;;1.83;76.95;98167.20;107435;1255;61096;-39
2023/12/21 05:23:18;;;;;;;6.30;5.10;;;;;;;1.94;76.89;98165.34;107483;1254;60530;-39
2023/12/21 05:25:46;;;;;;;9.80;5.00;;;;;;;1.99;76.95;98172.45;107446;1260;74041;-39
2023/12/21 05:28:14;;;;;;;7.90;5.30;;;;;;;2.01;77.07;98174.73;107411;1254;67556;-39
2023/12/21 05:30:41;;;;;;;9.20;5.90;;;;;;;2.02;77.15;98176.30;107438;1254;72186;-39
2023/12/21 05:33:09;;;;;;;6.80;5.00;;;;;;;2.04;77.07;98171.94;107476;1260;59700;-39
2023/12/21 05:35:36;;;;;;;9.50;5.00;;;;;;;2.08;76.98;98169.39;107482;1254;59187;-39
2023/12/21 05:38:04;;;;;;;9.10;5.90;;;;;;;2.17;76.68;98168.75;107486;1254;72582;-39
2023/12/21 05:40:31;;;;;;;8.10;5.30;;;;;;;2.25;76.27;98171.92;107477;1255;67874;-39
2023/12/21 05:42:59;;;;;;;8.40;5.60;;;;;;;2.26;76.13;98169.98;107481;1254;72423;-39
2023/12/21 05:45:26;;;;;;;7.10;5.50;;;;;;;2.23;76.02;98168.80;107480;1254;59504;-39
2023/12/21 05:47:58;;;;;;;7.80;5.50;;;;;;;2.20;76.05;98172.21;107415;1254;60306;-39
2023/12/21 05:50:26;;;;;;;7.20;5.00;;;;;;;2.17;76.01;98166.17;107494;1254;73882;-40
2023/12/21 05:52:54;;;;;;;9.10;4.90;;;;;;;2.21;76.23;98163.61;107417;1260;66607;-40
2023/12/21 05:55:21;;;;;;;6.40;5.00;;;;;;;2.30;76.05;98161.91;107478;1254;71462;-38
2023/12/21 05:57:49;;;;;;;8.10;4.90;;;;;;;2.33;75.89;98158.86;107516;1254;60321;-38
2023/12/21 06:00:17;;;;;;;8.50;5.80;;;;;;;2.31;75.99;98155.38;107502;1255;60597;-38
2023/12/21 06:02:44;;;;;;;7.50;5.60;;;;;;;2.30;75.98;98157.23;107553;1254;73061;-39
2023/12/21 06:05:12;;;;;;;10.80;5.40;;;;;;;2.23;76.29;98164.91;107531;1259;68042;-38
2023/12/21 06:07:40;;;;;;;6.90;5.40;;;;;;;2.20;76.47;98164.81;107408;1259;72744;-38
2023/12/21 06:10:08;;;;;;;7.10;5.20;;;;;;;2.20;76.25;98166.33;107417;1254;60528;-38
2023/12/21 06:12:36;;;;;;;10.00;5.90;;;;;;;2.16;76.51;98170.49;107544;1254;60539;-38
2023/12/21 06:15:04;;;;;;;8.50;5.40;;;;;;;2.10;76.99;98168.98;107505;1255;72870;-39
2023/12/21 06:17:32;;;;;;;11.40;6.60;;;;;;;2.06;77.31;98172.38;107445;1259;67543;-39
2023/12/21 06:20:00;;;;;;;10.70;6.10;;;;;;;2.02;77.22;98175.75;107459;1254;71974;-39
2023/12/21 06:22:27;;;;;;;11.60;6.30;;;;;;;1.98;77.46;98177.93;107373;1256;60533;-39
2023/12/21 06:24:55;;;;;;;9.30;6.10;;;;;;;2.01;77.62;98173.44;107461;1255;59447;-39
2023/12/21 06:27:22;;;;;;;10.80;6.20;;;;;;;2.01;77.55;98178.24;107495;1253;72907;-39
2023/12/21 06:29:50;;;;;;;9.60;5.90;;;;;;;1.94;77.73;98177.85;107408;1255;67918;-39
2023/12/21 06:32:17;;;;;;;7.80;6.40;;;;;;;1.85;78.03;98173.52;107496;1258;72714;-39
2023/12/21 06:34:45;;;;;;;10.60;6.70;;;;;;;1.78;78.44;98176.02;107446;1254;60491;-39
2023/12/21 06:37:12;;;;;;;7.40;5.90;;;;;;;1.80;78.54;98178.91;107448;1260;59198;-39
2023/12/21 06:39:40;;;;;;;9.20;6.70;;;;;;;1.85;78.74;98187.16;107410;1255;72625;-39
2023/12/21 06:42:07;;;;;;;10.70;6.80;;;;;;;1.85;79.05;98188.68;107471;1253;68170;-39
2023/12/21 06:44:35;;;;;;;11.60;7.50;;;;;;;1.82;79.16;98186.98;107461;1254;72333;-39
2023/12/21 06:47:04;;;;;;;12.40;8.10;;;;;;;1.80;79.54;98187.61;107426;1254;60320;-39
2023/12/21 06:49:31;;;;;;;12.20;8.70;;;;;;;1.81;79.93;98187.20;107496;1254;60533;-39
2023/12/21 06:51:59;;;;;;;10.50;7.60;;;;;;;1.90;79.78;98190.94;107452;1254;73100;-39
2023/12/21 06:54:26;;;;;;;11.60;7.90;;;;;;;2.00;79.80;98183.41;107476;1254;67684;-39
2023/12/21 06:56:54;;;;;;;11.10;8.20;;;;;;;2.03;79.90;98186.17;107422;1254;71949;-39
2023/12/21 06:59:22;;;;;;;12.40;9.10;;;;;;;2.01;80.04;98188.72;107454;1255;60309;-39
2023/12/21 07:01:49;;;;;;;12.60;9.20;;;;;;;2.00;80.45;98187.15;107479;1254;60440;-39
2023/12/21 07:04:18;;;;;;;12.70;8.40;;;;;;;2.00;80.55;98192.03;107490;1254;73941;-39
2023/12/21 07:06:46;;;;;;;11.00;8.30;;;;;;;2.07;80.37;98194.94;107476;1255;67552;-40
2023/12/21 07:09:14;;;;;;;12.30;8.30;;;;;;;2.15;80.17;98192.94;107471;1254;72669;-39
2023/12/21 07:11:41;;;;;;;12.80;8.70;;;;;;;2.17;80.11;98192.47;107481;1255;60463;-39
2023/12/21 07:14:09;;;;;;;12.90;9.30;;;;;;;2.19;80.39;98189.13;107424;1260;60360;-39
2023/12/21 07:16:36;;;;;;;20.30;9.90;;;;;;;2.19;80.41;98190.77;107472;1254;72572;-40
2023/12/21 07:19:06;;;;;;;16.50;10.90;;;;;;;2.21;80.41;98192.05;107483;1254;67599;-40
2023/12/21 07:21:34;;;;;;;14.00;8.90;;;;;;;2.31;80.35;98191.14;107458;1254;72658;-40
2023/12/21 07:24:02;;;;;;;12.40;8.80;;;;;;;2.42;80.03;98190.59;107477;1254;60463;-39
2023/12/21 07:26:29;;;;;;;13.50;9.60;;;;;;;2.49;79.98;98193.46;107371;1254;137505;-40
2023/12/21 07:31:23;;;;;;;13.20;10.00;;;;;;;2.53;80.00;98196.36;104097;1291;600379;-39
2023/12/21 07:33:51;;;;;;;14.30;10.10;;;;;;;2.48;79.81;98186.94;106468;1269;59580;-39
2023/12/21 07:36:19;;;;;;;14.60;9.90;;;;;;;2.61;79.54;98200.36;106497;1266;59345;-39
2023/12/21 07:38:46;;;;;;;14.80;10.00;;;;;;;2.66;79.17;98196.67;106519;1266;71173;-39
2023/12/21 07:41:14;;;;;;;13.70;10.60;;;;;;;2.64;79.39;98190.95;106533;1266;67959;-39
2023/12/21 07:43:41;;;;;;;15.30;10.50;;;;;;;2.67;79.48;98191.52;106611;1268;72478;-39
2023/12/21 07:46:09;;;;;;;15.20;11.00;;;;;;;2.68;79.42;98190.17;106652;1266;108108;-39
2023/12/21 07:48:37;;;;;;;13.00;10.00;;;;;;;2.76;79.27;98191.65;106777;1266;59590;-39
2023/12/21 07:51:05;;;;;;;12.00;9.20;;;;;;;2.89;79.01;98192.02;106737;1271;72265;-39
2023/12/21 07:53:32;;;;;;;14.10;10.70;;;;;;;2.99;78.67;98187.45;106774;1264;67679;-39
2023/12/21 07:56:02;;;;;;;16.30;11.00;;;;;;;3.06;78.68;98187.27;106715;1266;72658;-38
2023/12/21 07:58:30;;;;;;;14.00;9.90;;;;;;;3.14;78.63;98179.84;106746;1265;60645;-38
2023/12/21 08:00:59;;;;;;;12.50;9.60;;;;;;;3.28;77.59;98179.92;106726;1266;59599;-38
2023/12/21 08:03:26;;;;;;;13.20;10.30;;;;;;;3.40;76.88;98180.52;106755;1266;73067;-39
2023/12/21 08:05:55;;;;;;;14.20;10.40;;;;;;;3.44;76.69;98176.49;106731;1266;67780;-39
2023/12/21 08:08:22;;;;;;;13.40;10.50;;;;;;;3.46;76.70;98177.69;106735;1266;72707;-39
2023/12/21 08:10:50;;;;;;;12.90;9.70;;;;;;;3.47;76.42;98172.38;106718;1266;59718;-39
2023/12/21 08:13:18;;;;;;;15.40;9.70;;;;;;;3.49;75.80;98170.80;106601;1266;59572;-39
2023/12/21 08:15:45;;;;;;;14.30;9.90;;;;;;;3.55;75.56;98172.80;106653;1271;73176;-39
2023/12/21 08:18:13;;;;;;;11.60;9.30;;;;;;;3.58;75.23;98172.95;107368;1254;67678;-39
2023/12/21 08:20:42;;;;;;;14.30;9.80;;;;;;;3.59;75.44;98168.09;107378;1256;71236;-39
2023/12/21 08:23:10;;;;;;;13.60;9.90;;;;;;;3.62;75.28;98167.71;107498;1258;59727;-39
2023/12/21 08:25:38;;;;;;;13.80;9.50;;;;;;;3.63;75.19;98163.99;107321;1253;60147;-39
2023/12/21 08:28:06;;;;;;;12.40;9.00;;;;;;;3.66;75.04;98159.23;107296;1253;73192;-39
2023/12/21 08:30:33;;;;;;;13.30;8.70;;;;;;;3.84;75.02;98164.53;107361;1254;67576;-39
2023/12/21 08:33:02;;;;;;;14.50;9.90;;;;;;;3.91;74.47;98159.91;107312;1256;72491;-39
2023/12/21 08:35:30;;;;;;;17.60;10.50;;;;;;;3.97;74.25;98163.27;107311;1256;59376;-39
2023/12/21 08:37:59;;;;;;;15.90;10.90;;;;;;;4.03;73.94;98154.44;107352;1254;59296;-39
2023/12/21 08:40:27;;;;;;;16.20;11.30;;;;;;;4.10;72.98;98154.45;107322;1256;73056;-39
2023/12/21 08:42:54;;;;;;;16.70;10.00;;;;;;;4.21;72.68;98145.16;107336;1256;68164;-39
2023/12/21 08:45:22;;;;;;;12.40;9.00;;;;;;;4.36;72.53;98145.52;107322;1256;72672;-39
2023/12/21 08:47:50;;;;;;;16.10;9.40;;;;;;;4.45;71.55;98137.82;107326;1258;60236;-39
2023/12/21 08:50:18;;;;;;;16.70;9.90;;;;;;;4.44;70.73;98138.44;107382;1256;60015;-39
2023/12/21 08:52:46;;;;;;;13.60;9.10;;;;;;;4.41;70.83;98139.35;107350;1256;73318;-39
2023/12/21 08:55:13;;;;;;;13.80;8.30;;;;;;;4.40;70.75;98131.74;107339;1254;67588;-39
2023/12/21 08:57:41;;;;;;;14.40;8.30;;;;;;;4.43;70.60;98127.20;107330;1256;72795;-39
2023/12/21 09:00:13;;;;;;;18.10;8.00;;;;;;;4.52;70.16;98121.82;107460;1256;59795;-39
2023/12/21 09:02:41;;;;;;;13.70;8.90;;;;;;;4.56;69.73;98122.96;107399;1256;60894;-39
2023/12/21 09:05:12;;;;;;;12.50;8.20;;;;;;;4.53;69.76;98122.30;107365;1254;75388;-39
2023/12/21 09:07:40;;;;;;;13.80;9.80;;;;;;;4.51;69.52;98112.98;107335;1256;67580;-39
2023/12/21 09:10:09;;;;;;;16.40;8.50;;;;;;;4.51;69.33;98110.76;107384;1255;72785;-39
2023/12/21 09:12:37;;;;;;;11.40;8.50;;;;;;;4.55;69.54;98109.77;107322;1256;60855;-39
2023/12/21 09:15:05;;;;;;;13.70;8.50;;;;;;;4.68;69.37;98102.47;107338;1256;59997;-39
2023/12/21 09:17:33;;;;;;;12.50;8.80;;;;;;;4.80;68.78;98099.27;107535;1254;73035;-39
2023/12/21 09:20:01;;;;;;;13.40;8.90;;;;;;;4.87;68.67;98097.33;107392;1258;67916;-39
2023/12/21 09:22:29;;;;;;;15.30;9.10;;;;;;;4.96;68.18;98095.30;107420;1256;72707;-39
2023/12/21 09:24:57;;;;;;;10.00;7.50;;;;;;;5.04;67.51;98089.85;107376;1258;59669;-39
2023/12/21 09:27:27;;;;;;;12.90;7.60;;;;;;;5.12;66.97;98089.57;107371;1254;59645;-39
2023/12/21 09:29:54;;;;;;;;;;;;;;;5.29;66.75;98088.04;107413;1253;73099;-39
2023/12/21 09:32:22;;;;;;;12.70;8.50;;;;;;;5.46;66.33;98081.09;107514;1258;67667;-39
2023/12/21 09:34:49;;;;;;;11.70;7.90;;;;;;;5.57;65.76;98079.36;107510;1258;72783;-39
2023/12/21 09:37:17;;;;;;;13.20;8.70;;;;;;;5.65;65.47;98082.80;107516;1253;59513;-39
2023/12/21 09:39:45;;;;;;;13.60;8.80;;;;;;;5.67;65.19;98083.67;107538;1253;59581;-40
2023/12/21 09:42:14;;;;;;;11.90;8.50;;;;;;;5.62;65.00;98091.98;107477;1259;72868;-39
2023/12/21 09:44:48;;;;;;;10.50;7.80;;;;;;;5.50;65.27;98087.45;107549;1254;66803;-39
2023/12/21 09:47:19;;;;;;;11.40;7.30;;;;;;;5.33;65.51;98086.13;107504;1253;71791;-39
2023/12/21 09:49:47;;;;;;;11.50;7.60;;;;;;;5.22;66.05;98077.17;107280;1253;60980;-39
2023/12/21 09:52:15;;;;;;;12.00;8.70;;;;;;;5.09;66.48;98073.98;107502;1253;59579;-39
2023/12/21 09:54:43;;;;;;;12.50;7.90;;;;;;;4.95;66.81;98073.63;107476;1253;73002;-39
2023/12/21 09:57:10;;;;;;;13.00;8.70;;;;;;;4.81;67.39;98068.52;107290;1254;67563;-39
2023/12/21 09:59:38;;;;;;;12.50;8.30;;;;;;;4.71;67.81;98068.48;107298;1254;71557;-39
2023/12/21 10:02:11;;;;;;;12.40;8.40;;;;;;;4.65;68.05;98067.65;107460;1254;59774;-39
2023/12/21 10:04:43;;;;;;;9.70;8.10;;;;;;;4.65;67.92;98064.51;107476;1259;59526;-39
2023/12/21 10:07:12;;;;;;;9.60;7.70;;;;;;;4.63;68.11;98064.16;107496;1253;73197;-39
2023/12/21 10:09:40;;;;;;;11.60;7.80;;;;;;;4.58;68.47;98060.08;107503;1259;68957;-39
2023/12/21 10:12:08;;;;;;;12.60;8.70;;;;;;;4.56;68.75;98061.38;107458;1254;72588;-39
2023/12/21 10:14:35;;;;;;;12.50;8.60;;;;;;;4.57;68.88;98061.28;107466;1255;59715;-39
2023/12/21 10:17:09;;;;;;;11.40;8.20;;;;;;;4.64;68.61;98060.12;107300;1260;59621;-39
2023/12/21 10:19:37;;;;;;;10.20;7.80;;;;;;;4.66;68.39;98054.26;107475;1253;72879;-39
2023/12/21 10:22:05;;;;;;;11.20;7.80;;;;;;;4.62;67.77;98048.13;107496;1259;67622;-39
2023/12/21 10:24:33;;;;;;;12.30;8.30;;;;;;;4.61;68.36;98046.70;107479;1259;72417;-39
2023/12/21 10:27:03;;;;;;;12.50;8.20;;;;;;;4.59;68.62;98046.61;107481;1259;59624;-39
2023/12/21 10:29:32;;;;;;;12.10;8.50;;;;;;;4.58;68.71;98049.25;107447;1254;59494;-39
2023/12/21 10:31:59;;;;;;;11.40;8.00;;;;;;;4.62;68.48;98050.19;107484;1253;73134;-39
2023/12/21 10:34:27;;;;;;;11.10;7.50;;;;;;;4.65;68.34;98043.88;107465;1253;66620;-39
2023/12/21 10:36:56;;;;;;;14.20;8.70;;;;;;;4.63;68.14;98037.79;107266;1253;72744;-39
2023/12/21 10:39:24;;;;;;;12.70;8.20;;;;;;;4.62;68.52;98033.23;107469;1256;59664;-39
2023/12/21 10:41:51;;;;;;;12.10;7.90;;;;;;;4.68;68.51;98031.13;107469;1253;59532;-39
2023/12/21 10:44:19;;;;;;;11.80;8.00;;;;;;;4.73;68.11;98025.25;107301;1254;72401;-39
2023/12/21 10:46:47;;;;;;;11.00;7.90;;;;;;;4.83;67.88;98022.75;107297;1260;66902;-39
2023/12/21 10:49:15;;;;;;;12.40;8.30;;;;;;;4.88;67.50;98019.50;107328;1253;72822;-39
2023/12/21 10:51:43;;;;;;;13.10;8.40;;;;;;;4.86;67.31;98019.05;107356;1254;59554;-39
2023/12/21 10:54:14;;;;;;;10.30;7.80;;;;;;;4.77;66.86;98007.84;107479;1255;60105;-39
2023/12/21 10:56:45;;;;;;;11.50;8.00;;;;;;;4.69;67.36;98008.68;107571;1259;73154;-39
2023/12/21 10:59:17;;;;;;;15.30;8.00;;;;;;;4.64;67.59;98008.34;107337;1254;66410;-39
2023/12/21 11:01:44;;;;;;;12.80;7.90;;;;;;;4.64;67.58;98005.27;107350;1256;73266;-39
2023/12/21 11:04:12;;;;;;;12.60;8.00;;;;;;;4.64;67.44;97998.09;107489;1253;59404;-39
2023/12/21 11:06:39;;;;;;;10.30;7.60;;;;;;;4.60;67.87;97994.69;107341;1256;60136;-39
2023/12/21 11:09:09;;;;;;;12.10;8.20;;;;;;;4.56;68.14;97994.15;107384;1254;73638;-39
2023/12/21 11:11:37;;;;;;;12.60;8.30;;;;;;;4.54;67.96;97989.36;107308;1253;67801;-39
2023/12/21 11:14:04;;;;;;;12.30;7.90;;;;;;;4.49;68.06;97990.20;107529;1259;72516;-39
2023/12/21 11:16:33;;;;;;;10.10;7.40;;;;;;;4.41;67.89;97979.91;107476;1254;61147;-39
2023/12/21 11:19:02;;;;;;;11.80;7.60;;;;;;;4.51;68.09;97985.63;107544;1255;60150;-41
2023/12/21 11:21:30;;;;;;;12.60;8.00;;;;;;;4.59;67.80;97983.55;107493;1259;73189;-39
2023/12/21 11:23:58;;;;;;;11.30;7.40;;;;;;;4.60;67.68;97971.92;107362;1255;66927;-39
2023/12/21 11:26:27;;;;;;;12.50;7.50;;;;;;;4.57;67.28;97972.17;107486;1259;72779;-39
2023/12/21 11:29:05;;;;;;;11.10;7.70;;;;;;;4.57;67.41;97974.69;107529;1259;59489;-39
2023/12/21 11:31:38;;;;;;;10.20;7.20;;;;;;;4.60;67.66;97970.77;107513;1258;59491;-39
2023/12/21 11:34:10;;;;;;;12.40;8.60;;;;;;;4.65;67.59;97967.13;107482;1254;73184;-39